createdAt,value
2022-08-01T00:02:02.199Z,19.90
2022-08-01T00:04:29.150Z,20.00
2022-08-01T00:06:55.906Z,20.00
2022-08-01T00:09:24.123Z,20.00
2022-08-01T00:11:56.346Z,19.70
2022-08-01T00:14:32.238Z,19.80
2022-08-01T00:17:05.141Z,19.60
2022-08-01T00:19:34.079Z,19.80
2022-08-01T00:22:01.056Z,19.70
2022-08-01T00:24:27.856Z,19.90
2022-08-01T00:26:54.633Z,19.70
2022-08-01T00:30:10.685Z,19.70
2022-08-01T00:32:09.177Z,19.60
2022-08-01T00:34:36.087Z,19.70
2022-08-01T00:37:02.844Z,19.60
2022-08-01T00:39:29.666Z,19.60
2022-08-01T00:41:59.614Z,19.80
2022-08-01T00:44:27.303Z,19.60
2022-08-01T00:46:54.165Z,19.70
2022-08-01T00:49:21.059Z,19.40
2022-08-01T00:51:47.907Z,19.30
2022-08-01T00:54:16.676Z,19.40
2022-08-01T00:56:44.118Z,19.30
2022-08-01T00:59:10.901Z,19.20
2022-08-01T01:01:39.983Z,19.30
2022-08-01T01:04:08.444Z,19.30
2022-08-01T01:06:39.661Z,19.20
2022-08-01T01:09:25.534Z,19.10
2022-08-01T01:12:04.969Z,19.20
2022-08-01T01:14:34.285Z,19.10
2022-08-01T01:17:01.963Z,19.00
2022-08-01T01:19:30.138Z,19.00
2022-08-01T01:21:56.910Z,19.00
2022-08-01T01:24:26.488Z,19.10
2022-08-01T01:26:56.046Z,18.90
2022-08-01T01:29:58.547Z,19.10
2022-08-01T01:32:19.766Z,19.00
2022-08-01T01:34:55.651Z,18.90
2022-08-01T01:37:22.997Z,18.90
2022-08-01T01:39:54.024Z,19.00
2022-08-01T01:42:21.260Z,19.10
2022-08-01T01:44:48.053Z,18.90
2022-08-01T01:47:14.892Z,19.10
2022-08-01T01:49:42.184Z,19.10
2022-08-01T01:52:09.126Z,19.10
2022-08-01T01:54:37.131Z,19.20
2022-08-01T01:57:05.054Z,19.10
2022-08-01T01:59:33.291Z,19.00
2022-08-01T02:02:08.292Z,19.00
2022-08-01T02:04:37.145Z,18.90
2022-08-01T02:07:04.211Z,19.10
2022-08-01T02:09:30.990Z,18.90
2022-08-01T02:12:09.545Z,18.90
2022-08-01T02:17:16.980Z,19.00
2022-08-01T02:19:43.756Z,18.80
2022-08-01T02:22:13.586Z,18.80
2022-08-01T02:24:49.519Z,18.80
2022-08-01T02:27:17.054Z,19.00
2022-08-01T02:29:46.514Z,19.10
2022-08-01T02:32:14.615Z,19.00
2022-08-01T02:34:42.124Z,19.00
2022-08-01T02:37:08.911Z,18.70
2022-08-01T02:39:35.767Z,18.90
2022-08-01T02:42:04.795Z,19.00
2022-08-01T02:44:32.551Z,19.00
2022-08-01T02:47:03.379Z,19.00
2022-08-01T02:49:34.603Z,18.90
2022-08-01T02:52:02.807Z,18.80
2022-08-01T02:54:29.969Z,19.00
2022-08-01T02:56:56.762Z,18.90
2022-08-01T02:59:26.831Z,18.70
2022-08-01T03:02:02.942Z,18.50
2022-08-01T03:04:30.402Z,18.40
2022-08-01T03:06:59.494Z,18.40
2022-08-01T03:09:29.534Z,18.20
2022-08-01T03:11:57.083Z,18.20
2022-08-01T03:14:23.874Z,18.40
2022-08-01T03:16:52.464Z,18.30
2022-08-01T03:19:19.333Z,18.30
2022-08-01T03:21:46.120Z,18.30
2022-08-01T03:24:12.923Z,18.20
2022-08-01T03:26:39.891Z,18.30
2022-08-01T03:29:10.912Z,18.60
2022-08-01T03:31:39.225Z,18.70
2022-08-01T03:34:06.358Z,18.80
2022-08-01T03:36:33.611Z,18.80
2022-08-01T03:39:01.173Z,18.70
2022-08-01T03:41:28.969Z,18.80
2022-08-01T03:44:02.940Z,18.80
2022-08-01T03:46:46.606Z,18.80
2022-08-01T03:49:16.112Z,18.80
2022-08-01T03:51:42.959Z,18.70
2022-08-01T03:54:09.737Z,18.60
2022-08-01T03:56:36.536Z,18.40
2022-08-01T03:59:07.160Z,18.60
2022-08-01T04:01:34.600Z,18.60
2022-08-01T04:04:01.489Z,18.50
2022-08-01T04:06:28.360Z,18.30
2022-08-01T04:08:58.351Z,18.10
2022-08-01T04:11:25.513Z,18.30
2022-08-01T04:13:53.045Z,18.40
2022-08-01T04:16:20.250Z,18.70
2022-08-01T04:18:47.159Z,18.80
2022-08-01T04:21:17.190Z,18.80
2022-08-01T04:23:44.589Z,18.90
2022-08-01T04:26:11.387Z,19.10
2022-08-01T04:28:38.240Z,19.00
2022-08-01T04:31:06.401Z,18.80
2022-08-01T04:33:33.195Z,18.90
2022-08-01T04:36:02.554Z,18.90
2022-08-01T04:38:31.993Z,18.90
2022-08-01T04:40:58.798Z,18.90
2022-08-01T04:43:27.628Z,19.00
2022-08-01T04:45:54.424Z,18.90
2022-08-01T04:48:22.690Z,18.90
2022-08-01T04:50:49.964Z,19.10
2022-08-01T04:53:20.492Z,19.20
2022-08-01T04:55:47.543Z,19.10
2022-08-01T04:58:18.261Z,19.30
2022-08-01T05:00:45.825Z,19.40
2022-08-01T05:03:12.595Z,19.70
2022-08-01T05:05:39.425Z,19.90
2022-08-01T05:08:07.339Z,19.90
2022-08-01T05:10:34.507Z,20.00
2022-08-01T05:13:01.311Z,20.00
2022-08-01T05:15:28.237Z,20.00
2022-08-01T05:17:55.326Z,20.20
2022-08-01T05:20:22.457Z,20.00
2022-08-01T05:22:49.437Z,20.20
2022-08-01T05:25:19.213Z,20.20
2022-08-01T05:27:49.065Z,20.10
2022-08-01T05:30:17.883Z,20.30
2022-08-01T05:32:44.886Z,20.50
2022-08-01T05:35:11.726Z,20.50
2022-08-01T05:37:38.471Z,20.70
2022-08-01T05:40:05.750Z,20.90
2022-08-01T05:42:32.570Z,21.00
2022-08-01T05:44:59.397Z,21.10
2022-08-01T05:47:26.247Z,21.00
2022-08-01T05:49:53.060Z,20.80
2022-08-01T05:52:19.864Z,21.10
2022-08-01T05:54:46.663Z,21.30
2022-08-01T05:57:13.499Z,21.40
2022-08-01T05:59:42.072Z,21.20
2022-08-01T06:02:09.431Z,21.70
2022-08-01T06:04:36.639Z,21.90
2022-08-01T06:07:03.425Z,22.00
2022-08-01T06:09:31.822Z,22.40
2022-08-01T06:11:58.818Z,22.30
2022-08-01T06:14:25.681Z,22.40
2022-08-01T06:16:52.473Z,22.20
2022-08-01T06:19:19.346Z,22.50
2022-08-01T06:21:46.171Z,22.50
2022-08-01T06:24:12.935Z,22.70
2022-08-01T06:26:39.725Z,22.80
2022-08-01T06:29:06.569Z,22.70
2022-08-01T06:31:36.760Z,22.90
2022-08-01T06:34:03.549Z,23.20
2022-08-01T06:36:30.349Z,23.30
2022-08-01T06:38:57.326Z,23.70
2022-08-01T06:41:24.665Z,23.90
2022-08-01T06:43:51.457Z,23.80
2022-08-01T06:46:18.239Z,24.00
2022-08-01T06:48:45.109Z,24.30
2022-08-01T06:51:16.474Z,24.50
2022-08-01T06:53:43.897Z,24.60
2022-08-01T06:56:11.730Z,24.80
2022-08-01T06:58:38.698Z,25.20
2022-08-01T07:01:07.180Z,25.50
2022-08-01T07:03:53.112Z,25.10
2022-08-01T07:06:21.288Z,25.00
2022-08-01T07:08:48.094Z,25.20
2022-08-01T07:11:14.939Z,25.30
2022-08-01T07:13:45.481Z,25.10
2022-08-01T07:16:15.776Z,25.40
2022-08-01T07:18:42.623Z,25.60
2022-08-01T07:21:16.734Z,25.60
2022-08-01T07:23:56.284Z,25.80
2022-08-01T07:26:23.646Z,25.90
2022-08-01T07:28:51.030Z,26.30
2022-08-01T07:31:17.913Z,26.30
2022-08-01T07:33:47.964Z,26.50
2022-08-01T07:36:19.392Z,26.50
2022-08-01T07:38:46.477Z,26.50
2022-08-01T07:41:13.583Z,26.40
2022-08-01T07:43:40.460Z,26.70
2022-08-01T07:46:07.331Z,27.00
2022-08-01T07:48:34.387Z,26.90
2022-08-01T07:51:01.151Z,26.90
2022-08-01T07:53:27.953Z,27.00
2022-08-01T07:55:54.749Z,27.30
2022-08-01T07:58:21.578Z,27.30
2022-08-01T08:00:48.633Z,27.10
2022-08-01T08:03:15.376Z,27.50
2022-08-01T08:05:58.557Z,27.90
2022-08-01T08:08:27.118Z,28.10
2022-08-01T08:10:53.942Z,28.00
2022-08-01T08:13:20.997Z,28.20
2022-08-01T08:15:48.549Z,28.30
2022-08-01T08:18:15.949Z,28.40
2022-08-01T08:20:42.709Z,28.10
2022-08-01T08:23:43.307Z,28.20
2022-08-01T08:26:13.478Z,28.20
2022-08-01T08:28:40.832Z,28.50
2022-08-01T08:31:25.285Z,29.00
2022-08-01T08:33:55.380Z,29.00
2022-08-01T08:41:42.909Z,28.50
2022-08-01T08:44:10.642Z,28.50
2022-08-01T08:46:48.266Z,28.70
2022-08-01T08:49:19.775Z,29.00
2022-08-01T08:51:48.305Z,28.90
2022-08-01T08:54:15.150Z,28.90
2022-08-01T08:56:41.936Z,28.80
2022-08-01T08:59:08.712Z,28.70
2022-08-01T09:01:36.323Z,29.00
2022-08-01T09:04:03.805Z,29.00
2022-08-01T09:06:31.075Z,29.30
2022-08-01T09:08:58.248Z,29.30
2022-08-01T09:11:25.025Z,29.10
2022-08-01T09:14:08.753Z,29.30
2022-08-01T09:16:35.762Z,29.10
2022-08-01T09:19:16.267Z,28.90
2022-08-01T09:22:00.659Z,29.00
2022-08-01T09:24:30.821Z,29.30
2022-08-01T09:26:58.114Z,29.50
2022-08-01T09:29:37.232Z,29.80
2022-08-01T09:32:08.719Z,30.20
2022-08-01T09:34:43.319Z,30.60
2022-08-01T09:37:10.846Z,31.20
2022-08-01T09:39:38.722Z,31.60
2022-08-01T09:42:29.203Z,31.50
2022-08-01T09:44:56.430Z,31.20
2022-08-01T09:47:23.646Z,31.50
2022-08-01T09:49:57.415Z,31.60
2022-08-01T09:52:29.154Z,31.40
2022-08-01T09:54:57.397Z,31.60
2022-08-01T09:57:24.238Z,31.10
2022-08-01T10:00:00.756Z,31.10
2022-08-01T10:02:31.384Z,31.60
2022-08-01T10:05:03.241Z,32.10
2022-08-01T10:07:42.878Z,32.70
2022-08-01T10:10:16.559Z,33.30
2022-08-01T10:12:44.446Z,33.80
2022-08-01T10:15:14.368Z,33.10
2022-08-01T10:17:50.660Z,32.60
2022-08-01T10:20:30.238Z,33.30
2022-08-01T10:22:59.983Z,33.50
2022-08-01T10:25:42.361Z,33.60
2022-08-01T10:28:21.702Z,33.00
2022-08-01T10:30:52.051Z,33.20
2022-08-01T10:33:20.035Z,33.30
2022-08-01T10:36:08.647Z,33.00
2022-08-01T10:38:36.176Z,33.20
2022-08-01T10:41:06.281Z,34.00
2022-08-01T10:43:36.598Z,34.60
2022-08-01T10:46:04.580Z,33.80
2022-08-01T10:48:50.303Z,35.00
2022-08-01T10:51:21.449Z,34.40
2022-08-01T10:53:49.028Z,33.80
2022-08-01T10:56:18.202Z,34.60
2022-08-01T11:04:13.953Z,36.70
2022-08-01T11:07:06.920Z,36.50
2022-08-01T11:09:51.528Z,36.50
2022-08-01T11:12:24.463Z,36.80
2022-08-01T11:15:03.104Z,38.60
2022-08-01T11:17:48.905Z,38.70
2022-08-01T11:20:17.469Z,38.40
2022-08-01T11:26:10.462Z,35.20
2022-08-01T11:28:40.509Z,33.60
2022-08-01T11:31:11.657Z,33.70
2022-08-01T11:33:46.029Z,34.90
2022-08-01T11:36:42.592Z,34.60
2022-08-01T11:39:13.595Z,34.50
2022-08-01T11:41:41.318Z,35.80
2022-08-01T11:44:10.061Z,35.40
2022-08-01T11:52:09.824Z,37.50
2022-08-01T11:54:53.105Z,36.60
2022-08-01T11:57:23.260Z,34.90
2022-08-01T12:00:03.528Z,34.90
2022-08-01T12:02:32.720Z,34.20
2022-08-01T12:05:00.424Z,34.90
2022-08-01T12:07:28.340Z,36.50
2022-08-01T12:10:02.668Z,39.40
2022-08-01T12:12:29.770Z,42.00
2022-08-01T12:14:57.632Z,42.00
2022-08-01T12:17:31.311Z,39.70
2022-08-01T12:19:58.107Z,37.30
2022-08-01T12:22:25.300Z,38.30
2022-08-01T12:24:52.329Z,39.20
2022-08-01T12:27:28.839Z,39.90
2022-08-01T12:29:56.156Z,41.80
2022-08-01T12:32:35.611Z,42.00
2022-08-01T12:35:04.036Z,40.70
2022-08-01T12:37:30.884Z,42.10
2022-08-01T12:39:58.722Z,41.40
2022-08-01T12:42:25.560Z,38.80
2022-08-01T12:44:52.872Z,38.00
2022-08-01T12:47:20.238Z,38.40
2022-08-01T12:49:47.062Z,39.10
2022-08-01T12:52:14.008Z,37.80
2022-08-01T12:54:59.701Z,36.30
2022-08-01T12:57:26.526Z,35.80
2022-08-01T13:00:25.877Z,38.60
2022-08-01T13:03:09.364Z,39.40
2022-08-01T13:05:52.352Z,37.90
2022-08-01T13:08:23.144Z,39.00
2022-08-01T13:10:50.427Z,37.50
2022-08-01T13:13:28.177Z,39.40
2022-08-01T13:16:04.750Z,40.20
2022-08-01T13:18:33.489Z,39.40
2022-08-01T13:21:10.121Z,40.00
2022-08-01T13:24:01.849Z,41.30
2022-08-01T13:26:38.192Z,43.70
2022-08-01T13:29:08.781Z,44.00
2022-08-01T13:31:35.994Z,45.70
2022-08-01T13:34:02.959Z,46.30
2022-08-01T13:36:30.030Z,46.40
2022-08-01T13:39:15.536Z,44.30
2022-08-01T13:41:42.505Z,43.60
2022-08-01T13:44:10.239Z,45.00
2022-08-01T13:46:40.209Z,44.10
2022-08-01T13:49:16.713Z,45.20
2022-08-01T13:51:43.727Z,45.20
2022-08-01T13:54:10.591Z,43.60
2022-08-01T13:56:37.383Z,44.90
2022-08-01T13:59:04.272Z,46.30
2022-08-01T14:01:34.217Z,48.00
2022-08-01T14:04:01.580Z,46.30
2022-08-01T14:06:28.423Z,43.40
2022-08-01T14:08:55.224Z,43.30
2022-08-01T14:11:22.080Z,42.80
2022-08-01T14:13:48.885Z,44.00
2022-08-01T14:16:16.310Z,42.90
2022-08-01T14:18:44.218Z,42.90
2022-08-01T14:21:11.355Z,43.70
2022-08-01T14:23:38.165Z,44.40
2022-08-01T14:26:10.005Z,44.70
2022-08-01T14:28:39.310Z,43.60
2022-08-01T14:31:09.086Z,43.30
2022-08-01T14:33:35.935Z,43.80
2022-08-01T14:36:28.568Z,44.00
2022-08-01T14:38:50.132Z,43.40
2022-08-01T14:41:16.979Z,40.00
2022-08-01T14:43:43.788Z,39.10
2022-08-01T14:46:11.183Z,38.40
2022-08-01T14:48:38.062Z,37.00
2022-08-01T14:51:05.407Z,36.60
2022-08-01T14:53:35.708Z,36.40
2022-08-01T14:56:03.532Z,36.40
2022-08-01T14:58:30.330Z,36.30
2022-08-01T15:00:59.123Z,36.20
2022-08-01T15:03:26.489Z,36.10
2022-08-01T15:05:53.323Z,35.80
2022-08-01T15:08:20.118Z,35.10
2022-08-01T15:10:47.149Z,34.80
2022-08-01T15:13:13.916Z,35.00
2022-08-01T15:15:40.675Z,35.30
2022-08-01T15:18:07.484Z,35.30
2022-08-01T15:20:34.296Z,34.70
2022-08-01T15:23:01.096Z,34.70
2022-08-01T15:25:41.295Z,34.70
2022-08-01T15:28:11.676Z,34.30
2022-08-01T15:30:38.533Z,34.50
2022-08-01T15:33:05.822Z,34.40
2022-08-01T15:35:32.755Z,33.90
2022-08-01T15:37:59.563Z,33.80
2022-08-01T15:40:27.663Z,33.50
2022-08-01T15:42:54.445Z,33.20
2022-08-01T15:45:47.419Z,33.20
2022-08-01T15:48:09.218Z,32.80
2022-08-01T15:50:38.674Z,33.20
2022-08-01T15:53:05.897Z,33.50
2022-08-01T15:55:32.735Z,33.70
2022-08-01T15:57:59.503Z,33.80
2022-08-01T16:00:32.600Z,33.70
2022-08-01T16:02:59.935Z,33.80
2022-08-01T16:05:26.717Z,33.60
2022-08-01T16:07:59.424Z,33.60
2022-08-01T16:10:28.994Z,33.40
2022-08-01T16:12:55.805Z,33.20
2022-08-01T16:15:22.630Z,33.00
2022-08-01T16:18:01.917Z,33.00
2022-08-01T16:20:29.207Z,33.00
2022-08-01T16:22:55.949Z,33.20
2022-08-01T16:25:22.774Z,33.50
2022-08-01T16:27:49.616Z,33.50
2022-08-01T16:30:16.479Z,33.20
2022-08-01T16:32:57.243Z,33.20
2022-08-01T16:35:32.667Z,33.70
2022-08-01T16:38:06.681Z,33.60
2022-08-01T16:40:33.506Z,34.00
2022-08-01T16:43:13.777Z,34.00
2022-08-01T16:45:43.062Z,34.40
2022-08-01T16:48:10.507Z,34.20
2022-08-01T16:50:39.259Z,34.80
2022-08-01T16:53:06.058Z,36.20
2022-08-01T16:55:49.488Z,37.40
2022-08-01T16:58:17.201Z,38.40
2022-08-01T17:00:44.207Z,38.70
2022-08-01T17:03:51.858Z,37.60
2022-08-01T17:06:10.849Z,35.90
2022-08-01T17:08:46.740Z,34.80
2022-08-01T17:11:14.281Z,34.40
2022-08-01T17:13:41.170Z,34.00
2022-08-01T17:16:08.311Z,34.20
2022-08-01T17:18:35.216Z,34.40
2022-08-01T17:21:02.164Z,34.90
2022-08-01T17:23:29.039Z,35.90
2022-08-01T17:25:55.881Z,36.90
2022-08-01T17:28:23.240Z,37.60
2022-08-01T17:30:50.062Z,38.50
2022-08-01T17:33:16.997Z,37.60
2022-08-01T17:35:43.780Z,37.60
2022-08-01T17:38:10.536Z,36.50
2022-08-01T17:40:40.620Z,35.20
2022-08-01T17:43:08.096Z,33.90
2022-08-01T17:45:38.073Z,32.90
2022-08-01T17:48:17.379Z,32.30
2022-08-01T17:50:44.302Z,31.50
2022-08-01T17:53:11.452Z,31.40
2022-08-01T17:55:53.337Z,31.40
2022-08-01T17:58:49.535Z,31.20
2022-08-01T18:01:11.191Z,31.00
2022-08-01T18:03:41.289Z,30.70
2022-08-01T18:06:14.165Z,30.50
2022-08-01T18:08:42.109Z,30.20
2022-08-01T18:11:09.503Z,29.90
2022-08-01T18:13:36.606Z,29.90
2022-08-01T18:16:09.214Z,29.90
2022-08-01T18:18:36.365Z,29.80
2022-08-01T18:21:03.346Z,29.80
2022-08-01T18:23:30.167Z,29.70
2022-08-01T18:25:56.981Z,29.60
2022-08-01T18:28:32.793Z,29.50
2022-08-01T18:31:02.145Z,29.20
2022-08-01T18:33:28.963Z,29.00
2022-08-01T18:36:00.634Z,28.80
2022-08-01T18:38:29.413Z,28.50
2022-08-01T18:40:56.446Z,28.50
2022-08-01T18:43:23.323Z,28.30
2022-08-01T18:45:50.177Z,28.10
2022-08-01T18:48:16.981Z,27.90
2022-08-01T18:50:43.781Z,27.70
2022-08-01T18:53:10.700Z,27.60
2022-08-01T18:55:37.606Z,27.70
2022-08-01T18:58:04.761Z,27.60
2022-08-01T19:00:31.600Z,27.70
2022-08-01T19:02:59.166Z,27.70
2022-08-01T19:05:26.008Z,27.50
2022-08-01T19:08:05.055Z,27.50
2022-08-01T19:10:35.031Z,27.50
2022-08-01T19:13:02.437Z,27.30
2022-08-01T19:15:29.222Z,27.30
2022-08-01T19:17:56.019Z,27.20
2022-08-01T19:20:22.865Z,27.00
2022-08-01T19:22:49.636Z,26.70
2022-08-01T19:25:16.471Z,26.70
2022-08-01T19:27:46.779Z,26.60
2022-08-01T19:30:13.634Z,26.50
2022-08-01T19:32:41.382Z,26.40
2022-08-01T19:35:08.667Z,26.60
2022-08-01T19:37:35.520Z,26.50
2022-08-01T19:40:02.297Z,26.40
2022-08-01T19:42:29.603Z,26.30
2022-08-01T19:44:56.456Z,26.30
2022-08-01T19:47:23.320Z,26.20
2022-08-01T19:49:50.198Z,26.20
2022-08-01T19:52:17.679Z,26.20
2022-08-01T19:54:45.551Z,25.90
2022-08-01T19:57:13.124Z,25.90
2022-08-01T19:59:39.939Z,25.80
2022-08-01T20:02:06.955Z,25.60
2022-08-01T20:04:34.068Z,25.50
2022-08-01T20:07:00.949Z,25.60
2022-08-01T20:09:27.954Z,25.60
2022-08-01T20:11:54.776Z,25.70
2022-08-01T20:14:22.305Z,25.40
2022-08-01T20:16:49.635Z,25.30
2022-08-01T20:19:16.682Z,25.30
2022-08-01T20:21:44.524Z,25.40
2022-08-01T20:24:30.934Z,25.30
2022-08-01T20:26:58.557Z,25.30
2022-08-01T20:29:25.906Z,25.00
2022-08-01T20:31:52.801Z,24.90
2022-08-01T20:34:23.232Z,24.70
2022-08-01T20:36:56.490Z,24.80
2022-08-01T20:39:23.597Z,24.80
2022-08-01T20:41:51.579Z,24.90
2022-08-01T20:44:27.098Z,24.90
2022-08-01T20:46:53.872Z,24.80
2022-08-01T20:49:20.737Z,24.70
2022-08-01T20:51:49.336Z,24.60
2022-08-01T20:54:16.149Z,24.50
2022-08-01T20:56:42.911Z,24.40
2022-08-01T20:59:39.545Z,24.40
2022-08-01T21:02:25.621Z,24.40
2022-08-01T21:04:55.164Z,24.30
2022-08-01T21:07:25.981Z,24.40
2022-08-01T21:10:07.160Z,24.30
2022-08-01T21:12:45.043Z,24.20
2022-08-01T21:15:15.851Z,24.10
2022-08-01T21:18:02.579Z,24.00
2022-08-01T21:20:29.885Z,24.00
2022-08-01T21:23:10.283Z,24.10
2022-08-01T21:25:37.084Z,24.20
2022-08-01T21:28:04.148Z,24.10
2022-08-01T21:30:31.261Z,24.20
2022-08-01T21:32:58.116Z,24.10
2022-08-01T21:35:25.376Z,24.00
2022-08-01T21:37:53.051Z,24.00
2022-08-01T21:40:20.678Z,24.10
2022-08-01T21:42:47.722Z,24.10
2022-08-01T21:45:14.671Z,24.10
2022-08-01T21:47:41.590Z,24.20
2022-08-01T21:50:11.731Z,24.10
2022-08-01T21:52:42.158Z,23.90
2022-08-01T21:55:35.223Z,23.60
2022-08-01T21:58:05.518Z,23.70
2022-08-01T22:00:32.386Z,23.60
2022-08-01T22:03:13.534Z,23.70
2022-08-01T22:05:49.970Z,23.60
2022-08-01T22:08:33.028Z,23.70
2022-08-01T22:11:00.834Z,23.60
2022-08-01T22:13:27.674Z,23.60
2022-08-01T22:15:56.081Z,23.60
2022-08-01T22:18:22.975Z,23.40
2022-08-01T22:20:49.798Z,23.40
2022-08-01T22:23:16.583Z,23.40
2022-08-01T22:25:43.413Z,23.30
2022-08-01T22:28:10.343Z,23.30
2022-08-01T22:30:40.463Z,23.30
2022-08-01T22:33:16.067Z,23.20
2022-08-01T22:35:45.686Z,23.10
2022-08-01T22:38:12.558Z,23.30
2022-08-01T22:40:40.059Z,23.10
2022-08-01T22:43:09.089Z,23.10
2022-08-01T22:45:48.549Z,23.00
2022-08-01T22:48:18.314Z,22.90
2022-08-01T22:50:46.200Z,22.90
2022-08-01T22:53:31.463Z,22.90
2022-08-01T22:55:59.639Z,22.80
2022-08-01T22:58:26.595Z,22.90
2022-08-01T23:00:58.981Z,22.80
2022-08-01T23:03:35.211Z,22.60
2022-08-01T23:06:03.513Z,22.60
2022-08-01T23:08:31.062Z,22.50
2022-08-01T23:10:59.259Z,22.60
2022-08-01T23:13:26.110Z,22.40
2022-08-01T23:15:52.970Z,22.60
2022-08-01T23:18:20.033Z,22.60
2022-08-01T23:20:46.804Z,22.60
2022-08-01T23:23:14.126Z,22.40
2022-08-01T23:25:41.141Z,22.40
2022-08-01T23:28:07.921Z,22.40
2022-08-01T23:30:34.981Z,22.40
2022-08-01T23:33:01.797Z,22.20
2022-08-01T23:35:29.022Z,22.10
2022-08-01T23:38:02.121Z,22.10
2022-08-01T23:40:30.695Z,22.00
2022-08-01T23:42:57.472Z,22.10
2022-08-01T23:45:24.283Z,22.30
2022-08-01T23:47:51.406Z,22.00
2022-08-01T23:50:18.214Z,21.90
2022-08-01T23:52:48.402Z,21.80
2022-08-01T23:55:16.794Z,21.70
2022-08-01T23:57:44.296Z,21.80
